Time;durP1;ratioP1;P1;durP2;ratioP2;P2;SDS_P1;SDS_P2;PMS_P1;PMS_P2;Temp;Humidity;BMP_temperature;BMP_pressure;BME280_temperature;BME280_humidity;BME280_pressure;Samples;Min_cycle;Max_cycle;Signal;HPM_P1;HPM_P2
2022/09/22 00:00:40;;;;;;;7.28;2.65;;;;;;;;;;5030122;28;20223;-67
2022/09/22 00:03:05;;;;;;;6.20;2.50;;;;;;;;;;5030317;28;20215;-67
2022/09/22 00:05:30;;;;;;;5.22;2.88;;;;;;;;;;5033462;28;20574;-67
2022/09/22 00:07:56;;;;;;;6.00;2.40;;;;;;;;;;5034167;28;20219;-67
2022/09/22 00:10:21;;;;;;;7.75;2.80;;;;;;;;;;5033748;28;20274;-67
2022/09/22 00:12:47;;;;;;;5.75;2.72;;;;;;;;;;5033588;28;20211;-67
2022/09/22 00:15:12;;;;;;;7.13;2.50;;;;;;;;;;5033669;28;20215;-67
2022/09/22 00:17:38;;;;;;;7.15;2.67;;;;;;;;;;5033897;28;20203;-67
2022/09/22 00:20:03;;;;;;;7.75;2.80;;;;;;;;;;5032825;28;20211;-66
2022/09/22 00:22:29;;;;;;;6.15;2.70;;;;;;;;;;5033981;28;20815;-67
2022/09/22 00:24:55;;;;;;;8.10;2.58;;;;;;;;;;5048187;28;20207;-67
2022/09/22 00:27:20;;;;;;;4.95;2.55;;;;;;;;;;5052917;28;20260;-67
2022/09/22 00:29:45;;;;;;;5.78;2.70;;;;;;;;;;5053612;28;20271;-67
2022/09/22 00:32:12;;;;;;;4.78;2.42;;;;;;;;;;5053129;28;20544;-66
2022/09/22 00:34:37;;;;;;;8.32;2.50;;;;;;;;;;5053463;28;20217;-67
2022/09/22 00:37:02;;;;;;;7.15;2.97;;;;;;;;;;5053114;28;20207;-67
2022/09/22 00:39:29;;;;;;;5.03;2.47;;;;;;;;;;5053314;28;20525;-67
2022/09/22 00:41:55;;;;;;;5.40;2.33;;;;;;;;;;5053651;28;20211;-67
2022/09/22 00:44:26;;;;;;;5.88;2.60;;;;;;;;;;5053043;28;20249;-66
2022/09/22 00:46:52;;;;;;;6.85;2.85;;;;;;;;;;5052571;28;20207;-66
2022/09/22 00:49:18;;;;;;;6.35;2.47;;;;;;;;;;5052990;28;20625;-67
2022/09/22 00:51:44;;;;;;;6.25;2.70;;;;;;;;;;5046385;28;20200;-67
2022/09/22 00:54:10;;;;;;;5.63;2.60;;;;;;;;;;5032305;28;20615;-66
2022/09/22 00:56:45;;;;;;;7.60;2.65;;;;;;;;;;5032101;28;20203;-68
2022/09/22 00:59:13;;;;;;;5.40;2.40;;;;;;;;;;5032886;28;20219;-67
2022/09/22 01:01:39;;;;;;;5.57;2.72;;;;;;;;;;5032336;28;20208;-67
2022/09/22 01:04:04;;;;;;;4.97;2.35;;;;;;;;;;5032999;28;20208;-66
2022/09/22 01:06:29;;;;;;;5.43;2.65;;;;;;;;;;5033159;28;20242;-66
2022/09/22 01:08:55;;;;;;;7.93;2.88;;;;;;;;;;5032371;28;20223;-67
2022/09/22 01:11:20;;;;;;;7.38;2.63;;;;;;;;;;5031365;28;20269;-67
2022/09/22 01:13:46;;;;;;;6.03;2.72;;;;;;;;;;5031754;28;20277;-66
2022/09/22 01:16:16;;;;;;;5.40;2.42;;;;;;;;;;5030656;28;20220;-66
2022/09/22 01:18:48;;;;;;;6.10;2.95;;;;;;;;;;5032910;28;20251;-67
2022/09/22 01:21:18;;;;;;;7.47;2.85;;;;;;;;;;5031042;28;20729;-66
2022/09/22 01:23:45;;;;;;;5.97;2.58;;;;;;;;;;5032841;28;20211;-67
2022/09/22 01:26:22;;;;;;;6.60;2.42;;;;;;;;;;5032478;28;20800;-67
2022/09/22 01:29:07;;;;;;;4.95;2.33;;;;;;;;;;5032051;28;20234;-66
2022/09/22 01:31:35;;;;;;;7.03;2.72;;;;;;;;;;5032454;28;20216;-67
2022/09/22 01:34:03;;;;;;;10.05;2.80;;;;;;;;;;5032457;28;20212;-65
2022/09/22 01:36:35;;;;;;;8.60;2.88;;;;;;;;;;5030372;28;20619;-67
2022/09/22 01:41:56;;;;;;;5.72;2.35;;;;;;;;;;5032381;28;20603;-66
2022/09/22 01:44:25;;;;;;;4.97;2.40;;;;;;;;;;5030316;28;20223;-66
2022/09/22 01:46:53;;;;;;;5.40;2.22;;;;;;;;;;5031052;28;20270;-67
2022/09/22 01:49:18;;;;;;;4.80;2.55;;;;;;;;;;5030645;28;20227;-67
2022/09/22 01:51:46;;;;;;;7.10;2.70;;;;;;;;;;5037381;28;20310;-67
2022/09/22 01:54:14;;;;;;;5.72;2.70;;;;;;;;;;5050361;28;20257;-66
2022/09/22 01:56:39;;;;;;;6.78;2.97;;;;;;;;;;5045610;28;20234;-67
2022/09/22 01:59:05;;;;;;;6.60;2.60;;;;;;;;;;5030490;28;20208;-66
2022/09/22 02:01:32;;;;;;;6.50;2.50;;;;;;;;;;5031541;28;20220;-66
2022/09/22 02:03:59;;;;;;;5.75;2.47;;;;;;;;;;5025568;28;20661;-67
2022/09/22 02:06:33;;;;;;;10.52;3.10;;;;;;;;;;5030744;28;20216;-67
2022/09/22 02:08:59;;;;;;;7.40;2.95;;;;;;;;;;5031067;28;20660;-66
2022/09/22 02:11:24;;;;;;;5.47;2.72;;;;;;;;;;5038367;28;20647;-66
2022/09/22 02:13:49;;;;;;;4.85;2.20;;;;;;;;;;5011416;28;20255;-66
2022/09/22 02:16:15;;;;;;;5.80;2.30;;;;;;;;;;5003831;28;20221;-66
2022/09/22 02:18:43;;;;;;;6.80;2.10;;;;;;;;;;5000748;28;20230;-66
2022/09/22 02:21:09;;;;;;;9.75;3.00;;;;;;;;;;5011535;28;20211;-66
2022/09/22 02:23:34;;;;;;;6.15;2.30;;;;;;;;;;5020194;28;20208;-66
2022/09/22 02:26:01;;;;;;;5.60;2.80;;;;;;;;;;4993920;28;20295;-66
2022/09/22 02:28:26;;;;;;;5.03;2.17;;;;;;;;;;4998383;28;20232;-66
2022/09/22 02:30:52;;;;;;;7.13;3.55;;;;;;;;;;5013663;28;20255;-66
2022/09/22 02:33:18;;;;;;;6.32;2.50;;;;;;;;;;4997603;28;20625;-66
2022/09/22 02:35:43;;;;;;;5.72;2.30;;;;;;;;;;5031759;28;20218;-66
2022/09/22 02:38:10;;;;;;;9.68;2.85;;;;;;;;;;5029609;28;20220;-66
2022/09/22 02:40:39;;;;;;;6.03;2.65;;;;;;;;;;5031646;28;20431;-66
2022/09/22 02:43:06;;;;;;;4.70;2.22;;;;;;;;;;5009793;28;20231;-66
2022/09/22 02:45:33;;;;;;;7.13;2.45;;;;;;;;;;5010226;28;20558;-66
2022/09/22 02:48:03;;;;;;;4.97;2.50;;;;;;;;;;5025823;28;20710;-66
2022/09/22 02:50:28;;;;;;;7.28;2.20;;;;;;;;;;5015076;28;20582;-66
2022/09/22 02:52:56;;;;;;;5.38;2.22;;;;;;;;;;5016721;28;20221;-66
2022/09/22 02:55:21;;;;;;;5.22;2.17;;;;;;;;;;5016358;28;20707;-66
2022/09/22 02:57:47;;;;;;;10.63;2.72;;;;;;;;;;5003831;28;20307;-66
2022/09/22 03:00:13;;;;;;;6.40;2.50;;;;;;;;;;4996869;28;20209;-66
2022/09/22 03:02:38;;;;;;;5.18;2.70;;;;;;;;;;4997992;28;20213;-66
2022/09/22 03:05:04;;;;;;;5.38;2.88;;;;;;;;;;4990626;28;20591;-67
2022/09/22 03:07:29;;;;;;;6.10;3.05;;;;;;;;;;5007672;28;20208;-67
2022/09/22 03:09:54;;;;;;;7.13;3.30;;;;;;;;;;5009583;28;20243;-66
2022/09/22 03:12:19;;;;;;;6.93;3.70;;;;;;;;;;5013089;28;20280;-66
2022/09/22 03:14:45;;;;;;;8.77;4.03;;;;;;;;;;4996716;28;20216;-66
2022/09/22 03:17:10;;;;;;;5.45;2.70;;;;;;;;;;4997027;28;20208;-66
2022/09/22 03:19:35;;;;;;;6.72;2.97;;;;;;;;;;5016209;28;20200;-66
2022/09/22 03:22:01;;;;;;;6.55;3.20;;;;;;;;;;5015793;28;20249;-66
2022/09/22 03:24:26;;;;;;;7.85;3.33;;;;;;;;;;5004812;28;20209;-67
2022/09/22 03:26:51;;;;;;;5.93;3.30;;;;;;;;;;4993397;28;20636;-66
2022/09/22 03:29:16;;;;;;;8.07;3.45;;;;;;;;;;4989617;28;20237;-66
2022/09/22 03:31:42;;;;;;;6.72;3.17;;;;;;;;;;5008697;28;20262;-66
2022/09/22 03:34:07;;;;;;;9.02;3.10;;;;;;;;;;5012425;28;20212;-66
2022/09/22 03:36:32;;;;;;;8.48;3.75;;;;;;;;;;5015500;28;20680;-66
2022/09/22 03:38:58;;;;;;;7.13;3.40;;;;;;;;;;5015549;28;20522;-67
2022/09/22 03:41:24;;;;;;;10.40;3.30;;;;;;;;;;5015647;28;20473;-66
2022/09/22 03:43:49;;;;;;;5.93;3.17;;;;;;;;;;5030406;28;20227;-66
2022/09/22 03:46:15;;;;;;;7.75;3.42;;;;;;;;;;5015278;28;20219;-66
2022/09/22 03:48:40;;;;;;;9.32;3.13;;;;;;;;;;5014413;28;20461;-66
2022/09/22 03:51:06;;;;;;;8.80;4.10;;;;;;;;;;5008970;28;20207;-66
2022/09/22 03:53:31;;;;;;;6.80;3.72;;;;;;;;;;4989843;28;20769;-66
2022/09/22 03:56:05;;;;;;;8.73;4.15;;;;;;;;;;4991322;28;20380;-66
2022/09/22 03:58:30;;;;;;;9.48;4.07;;;;;;;;;;4995243;28;20748;-66
2022/09/22 04:00:56;;;;;;;9.27;4.40;;;;;;;;;;4996837;28;20623;-66
2022/09/22 04:03:23;;;;;;;8.98;4.15;;;;;;;;;;4995629;28;20475;-66
2022/09/22 04:05:49;;;;;;;7.22;4.38;;;;;;;;;;4996239;28;20205;-66
2022/09/22 04:08:14;;;;;;;8.20;4.70;;;;;;;;;;4995041;28;20224;-66
2022/09/22 04:10:40;;;;;;;7.45;4.60;;;;;;;;;;4996155;28;20694;-66
2022/09/22 04:13:05;;;;;;;8.18;4.65;;;;;;;;;;4999261;28;20212;-66
2022/09/22 04:15:30;;;;;;;10.05;4.90;;;;;;;;;;5009389;28;20261;-66
2022/09/22 04:17:56;;;;;;;8.38;4.18;;;;;;;;;;4997223;28;20220;-66
2022/09/22 04:20:22;;;;;;;7.05;4.38;;;;;;;;;;4994139;28;20213;-66
2022/09/22 04:22:47;;;;;;;8.93;4.13;;;;;;;;;;5022038;28;20235;-66
2022/09/22 04:25:12;;;;;;;8.02;3.95;;;;;;;;;;5003455;28;20274;-66
2022/09/22 04:27:37;;;;;;;7.93;4.25;;;;;;;;;;5002706;28;20212;-66
2022/09/22 04:30:04;;;;;;;8.35;4.10;;;;;;;;;;5001807;28;20347;-65
2022/09/22 04:32:30;;;;;;;9.75;4.47;;;;;;;;;;5021770;28;20601;-65
2022/09/22 04:34:55;;;;;;;9.02;4.25;;;;;;;;;;5017344;28;20204;-66
2022/09/22 04:37:20;;;;;;;7.32;4.40;;;;;;;;;;4989273;28;21180;-66
2022/09/22 04:39:45;;;;;;;9.23;4.22;;;;;;;;;;4990077;28;20224;-66
2022/09/22 04:42:11;;;;;;;8.50;4.50;;;;;;;;;;5008039;28;20239;-66
2022/09/22 04:44:36;;;;;;;9.18;4.30;;;;;;;;;;4996445;28;20286;-66
2022/09/22 04:47:02;;;;;;;8.65;4.35;;;;;;;;;;4995555;28;20630;-66
2022/09/22 04:49:27;;;;;;;8.18;4.88;;;;;;;;;;5016673;28;20698;-64
2022/09/22 04:51:52;;;;;;;9.75;5.25;;;;;;;;;;5013048;28;20211;-64
2022/09/22 04:54:17;;;;;;;7.20;4.80;;;;;;;;;;4999365;28;20240;-64
2022/09/22 04:56:43;;;;;;;8.63;4.97;;;;;;;;;;4997406;28;20769;-64
2022/09/22 04:59:08;;;;;;;9.15;4.90;;;;;;;;;;5005122;28;20216;-64
2022/09/22 05:01:34;;;;;;;8.75;5.15;;;;;;;;;;5027996;28;20838;-64
2022/09/22 05:03:59;;;;;;;6.72;5.32;;;;;;;;;;5028314;28;20320;-65
2022/09/22 05:06:25;;;;;;;10.93;6.10;;;;;;;;;;5028556;28;20467;-66
2022/09/22 05:08:50;;;;;;;12.32;6.00;;;;;;;;;;5028731;28;20450;-66
2022/09/22 05:11:16;;;;;;;9.77;6.22;;;;;;;;;;5028671;28;20212;-64
2022/09/22 05:13:41;;;;;;;12.23;7.10;;;;;;;;;;5026027;28;20299;-64
2022/09/22 05:16:07;;;;;;;10.30;7.55;;;;;;;;;;5019873;28;20255;-64
2022/09/22 05:18:32;;;;;;;12.93;7.57;;;;;;;;;;5017619;28;20251;-63
2022/09/22 05:20:59;;;;;;;14.25;7.57;;;;;;;;;;5019513;28;20678;-62
2022/09/22 05:23:24;;;;;;;13.55;7.55;;;;;;;;;;5020511;28;20662;-62
2022/09/22 05:25:49;;;;;;;13.35;8.07;;;;;;;;;;5017923;28;20234;-63
2022/09/22 05:28:14;;;;;;;10.07;7.15;;;;;;;;;;5018679;28;20200;-62
2022/09/22 05:30:40;;;;;;;10.43;6.90;;;;;;;;;;5018396;28;20227;-63
2022/09/22 05:33:05;;;;;;;11.50;7.63;;;;;;;;;;5017786;28;20768;-62
2022/09/22 05:35:30;;;;;;;10.93;8.05;;;;;;;;;;5019084;28;20345;-62
2022/09/22 05:37:56;;;;;;;10.63;8.15;;;;;;;;;;5017690;28;20213;-62
2022/09/22 05:40:23;;;;;;;11.75;7.88;;;;;;;;;;5019473;28;20242;-62
2022/09/22 05:42:50;;;;;;;12.43;8.13;;;;;;;;;;5023056;28;20235;-62
2022/09/22 05:45:15;;;;;;;12.73;8.63;;;;;;;;;;5021322;28;20221;-62
2022/09/22 05:47:41;;;;;;;12.40;8.65;;;;;;;;;;5019484;28;20218;-64
2022/09/22 05:50:06;;;;;;;13.63;10.30;;;;;;;;;;5023733;28;20453;-64
2022/09/22 05:52:32;;;;;;;12.38;9.18;;;;;;;;;;5029688;28;20307;-61
2022/09/22 05:54:57;;;;;;;13.25;8.90;;;;;;;;;;5028134;28;20599;-62
2022/09/22 05:57:26;;;;;;;12.80;8.38;;;;;;;;;;5021721;28;20438;-65
2022/09/22 05:59:52;;;;;;;11.25;8.75;;;;;;;;;;5027135;28;20212;-64
2022/09/22 06:02:17;;;;;;;11.88;9.43;;;;;;;;;;5022939;28;20215;-64
2022/09/22 06:04:42;;;;;;;13.52;8.38;;;;;;;;;;5025803;28;20200;-61
2022/09/22 06:07:07;;;;;;;12.60;8.90;;;;;;;;;;5021794;28;20733;-62
2022/09/22 06:09:33;;;;;;;12.10;8.65;;;;;;;;;;5024980;28;20701;-64
2022/09/22 06:11:58;;;;;;;12.57;8.75;;;;;;;;;;5025286;28;20234;-64
2022/09/22 06:14:24;;;;;;;13.05;8.70;;;;;;;;;;5028349;28;20286;-64
2022/09/22 06:16:49;;;;;;;10.82;8.02;;;;;;;;;;5028404;28;20621;-74
2022/09/22 06:19:14;;;;;;;14.20;7.97;;;;;;;;;;5027649;28;20218;-67
2022/09/22 06:21:39;;;;;;;11.07;7.95;;;;;;;;;;5027705;28;20234;-70
2022/09/22 06:24:05;;;;;;;13.60;7.90;;;;;;;;;;5026728;28;20223;-71
2022/09/22 06:26:31;;;;;;;11.43;7.55;;;;;;;;;;5028296;28;20212;-71
2022/09/22 06:28:57;;;;;;;12.73;7.45;;;;;;;;;;5026422;28;20223;-71
2022/09/22 06:31:22;;;;;;;9.20;6.63;;;;;;;;;;5027069;28;20215;-63
2022/09/22 06:33:49;;;;;;;9.68;5.90;;;;;;;;;;5028379;28;20208;-63
2022/09/22 06:36:29;;;;;;;11.23;5.53;;;;;;;;;;5027096;28;20200;-63
2022/09/22 06:38:57;;;;;;;11.00;6.03;;;;;;;;;;5027098;28;20204;-63
2022/09/22 06:41:22;;;;;;;8.15;5.45;;;;;;;;;;5027750;28;20258;-63
2022/09/22 06:43:49;;;;;;;11.02;5.90;;;;;;;;;;5028250;28;20224;-63
2022/09/22 06:46:17;;;;;;;16.38;8.13;;;;;;;;;;5027487;28;20219;-64
2022/09/22 06:48:44;;;;;;;18.50;7.93;;;;;;;;;;5027544;28;20280;-64
2022/09/22 06:51:09;;;;;;;14.50;8.57;;;;;;;;;;5027972;28;20208;-64
2022/09/22 06:53:34;;;;;;;15.43;8.60;;;;;;;;;;5047166;28;20207;-64
2022/09/22 06:56:02;;;;;;;13.75;8.88;;;;;;;;;;5047531;28;20210;-64
2022/09/22 06:58:28;;;;;;;14.73;9.55;;;;;;;;;;5028390;28;20318;-64
2022/09/22 07:00:53;;;;;;;13.68;9.88;;;;;;;;;;5028258;28;20208;-64
2022/09/22 07:03:21;;;;;;;12.70;9.23;;;;;;;;;;5027238;28;20212;-64
2022/09/22 07:05:57;;;;;;;14.63;9.60;;;;;;;;;;5027338;28;20212;-64
2022/09/22 07:08:22;;;;;;;13.98;9.35;;;;;;;;;;5027062;28;20215;-64
2022/09/22 07:10:51;;;;;;;12.13;8.65;;;;;;;;;;5029483;28;20218;-63
2022/09/22 07:13:17;;;;;;;13.27;8.25;;;;;;;;;;5025797;28;20212;-64
2022/09/22 07:15:43;;;;;;;13.02;8.90;;;;;;;;;;5027842;28;20203;-64
2022/09/22 07:18:09;;;;;;;14.10;8.43;;;;;;;;;;5027151;28;20612;-64
2022/09/22 07:20:34;;;;;;;10.60;8.45;;;;;;;;;;5026318;28;20214;-64
2022/09/22 07:23:00;;;;;;;12.80;8.23;;;;;;;;;;5027637;28;20207;-64
2022/09/22 07:25:27;;;;;;;13.35;7.55;;;;;;;;;;5026799;28;20265;-64
2022/09/22 07:27:53;;;;;;;13.48;8.40;;;;;;;;;;5026515;28;20332;-64
2022/09/22 07:30:21;;;;;;;14.00;7.93;;;;;;;;;;5026323;28;20223;-64
2022/09/22 07:32:46;;;;;;;11.88;7.80;;;;;;;;;;5027222;28;20211;-64
2022/09/22 07:35:11;;;;;;;9.95;7.57;;;;;;;;;;5026184;28;20219;-65
2022/09/22 07:37:40;;;;;;;10.15;7.22;;;;;;;;;;5027187;28;20750;-64
2022/09/22 07:40:06;;;;;;;10.15;7.13;;;;;;;;;;5026354;28;20208;-64
2022/09/22 07:42:31;;;;;;;12.75;7.00;;;;;;;;;;5025301;28;20220;-64
2022/09/22 07:45:12;;;;;;;10.95;7.60;;;;;;;;;;5027028;28;20287;-64
2022/09/22 07:50:21;;;;;;;10.88;7.28;;;;;;;;;;5005681;28;20239;-72
2022/09/22 07:52:53;;;;;;;11.45;6.75;;;;;;;;;;5021049;28;20596;-72
2022/09/22 07:55:23;;;;;;;10.68;6.43;;;;;;;;;;5024790;28;20640;-73
2022/09/22 07:57:56;;;;;;;13.27;7.00;;;;;;;;;;5026805;28;20234;-72
2022/09/22 08:00:22;;;;;;;11.88;7.25;;;;;;;;;;5025891;28;20212;-71
2022/09/22 08:02:53;;;;;;;14.20;7.60;;;;;;;;;;5024810;28;20705;-73
2022/09/22 08:05:18;;;;;;;13.80;7.20;;;;;;;;;;5026041;28;20211;-71
2022/09/22 08:07:43;;;;;;;11.30;6.72;;;;;;;;;;5025113;28;20701;-71
2022/09/22 08:10:10;;;;;;;11.45;6.32;;;;;;;;;;5027641;28;20233;-72
2022/09/22 08:12:37;;;;;;;10.60;6.90;;;;;;;;;;5026571;28;20210;-67
2022/09/22 08:15:02;;;;;;;10.63;6.60;;;;;;;;;;5026118;28;20227;-66
2022/09/22 08:17:27;;;;;;;9.68;7.10;;;;;;;;;;5026558;28;20277;-67
2022/09/22 08:19:54;;;;;;;15.23;7.45;;;;;;;;;;5026495;28;20213;-66
2022/09/22 08:22:19;;;;;;;12.07;7.22;;;;;;;;;;5015381;28;20373;-67
2022/09/22 08:24:45;;;;;;;10.55;7.38;;;;;;;;;;5014599;28;20644;-69
2022/09/22 08:27:10;;;;;;;9.77;6.63;;;;;;;;;;5009992;28;20208;-67
2022/09/22 08:29:35;;;;;;;9.45;6.45;;;;;;;;;;5018863;28;20215;-66
2022/09/22 08:32:01;;;;;;;10.50;7.40;;;;;;;;;;5026835;28;20211;-66
2022/09/22 08:34:26;;;;;;;11.02;7.03;;;;;;;;;;5021311;28;20220;-68
2022/09/22 08:36:51;;;;;;;10.43;6.90;;;;;;;;;;5024470;28;20212;-67
2022/09/22 08:39:16;;;;;;;10.10;6.57;;;;;;;;;;5025806;28;20200;-66
2022/09/22 08:41:46;;;;;;;10.95;6.30;;;;;;;;;;5022171;28;20211;-67
2022/09/22 08:44:21;;;;;;;12.25;7.20;;;;;;;;;;5028643;28;20219;-66
2022/09/22 08:46:47;;;;;;;10.20;6.35;;;;;;;;;;5027198;28;20298;-67
2022/09/22 08:52:03;;;;;;;10.70;6.15;;;;;;;;;;5026952;28;20247;-69
2022/09/22 08:54:30;;;;;;;8.80;5.75;;;;;;;;;;5014413;28;20733;-69
2022/09/22 08:57:14;;;;;;;10.82;6.10;;;;;;;;;;5016082;28;20304;-68
2022/09/22 08:59:43;;;;;;;11.10;6.28;;;;;;;;;;4998891;28;20220;-68
2022/09/22 09:02:20;;;;;;;9.25;5.43;;;;;;;;;;5034322;28;20281;-71
2022/09/22 09:04:53;;;;;;;7.50;5.30;;;;;;;;;;5022353;28;20665;-70
2022/09/22 09:07:31;;;;;;;7.50;4.72;;;;;;;;;;5037915;28;20224;-69
2022/09/22 09:10:13;;;;;;;10.98;5.45;;;;;;;;;;5022099;28;20369;-71
2022/09/22 09:12:43;;;;;;;8.60;5.05;;;;;;;;;;5006835;28;20212;-70
2022/09/22 09:15:23;;;;;;;9.40;4.70;;;;;;;;;;5023163;28;20307;-69
2022/09/22 09:17:48;;;;;;;8.80;5.05;;;;;;;;;;5022447;28;20247;-70
2022/09/22 09:20:16;;;;;;;9.15;5.03;;;;;;;;;;4996795;28;20413;-70
2022/09/22 09:22:43;;;;;;;8.77;4.97;;;;;;;;;;5014675;28;20220;-71
2022/09/22 09:25:16;;;;;;;9.77;5.13;;;;;;;;;;5036421;28;20208;-70
2022/09/22 09:27:42;;;;;;;8.35;4.85;;;;;;;;;;5022273;28;20288;-71
2022/09/22 09:30:16;;;;;;;6.40;4.95;;;;;;;;;;5022310;28;20292;-70
2022/09/22 09:32:44;;;;;;;6.93;4.80;;;;;;;;;;5030124;28;20243;-70
2022/09/22 09:35:12;;;;;;;7.75;4.95;;;;;;;;;;5037631;28;20207;-70
2022/09/22 09:37:37;;;;;;;9.07;5.13;;;;;;;;;;5016732;28;20217;-70
2022/09/22 09:40:03;;;;;;;8.00;4.70;;;;;;;;;;5015307;28;20560;-70
2022/09/22 09:42:30;;;;;;;7.53;4.85;;;;;;;;;;5030474;28;20741;-71
2022/09/22 09:45:01;;;;;;;10.57;4.82;;;;;;;;;;5031779;28;20220;-70
2022/09/22 09:47:31;;;;;;;8.13;4.47;;;;;;;;;;5020374;28;20246;-70
2022/09/22 09:49:56;;;;;;;8.55;4.80;;;;;;;;;;5037575;28;20221;-70
2022/09/22 09:52:22;;;;;;;9.18;4.50;;;;;;;;;;5012123;28;20238;-69
2022/09/22 09:54:48;;;;;;;9.73;4.97;;;;;;;;;;5038456;28;21147;-69
2022/09/22 09:57:15;;;;;;;9.43;4.65;;;;;;;;;;5012611;28;20209;-69
2022/09/22 10:02:27;;;;;;;9.55;4.85;;;;;;;;;;5017053;28;20261;-69
2022/09/22 10:04:54;;;;;;;8.18;4.68;;;;;;;;;;5016276;28;20219;-73
2022/09/22 10:07:20;;;;;;;8.82;4.47;;;;;;;;;;5031865;28;20274;-64
2022/09/22 10:09:47;;;;;;;8.02;4.57;;;;;;;;;;5013956;28;20220;-66
2022/09/22 10:12:23;;;;;;;10.40;4.68;;;;;;;;;;5004046;28;20581;-64
2022/09/22 10:14:50;;;;;;;7.97;4.35;;;;;;;;;;5004847;28;20757;-67
2022/09/22 10:17:22;;;;;;;8.30;3.95;;;;;;;;;;5019260;28;20213;-68
2022/09/22 10:19:49;;;;;;;7.13;3.45;;;;;;;;;;5011717;28;20189;-64
2022/09/22 10:22:15;;;;;;;7.85;3.50;;;;;;;;;;5007664;28;20704;-65
2022/09/22 10:24:40;;;;;;;8.82;3.63;;;;;;;;;;5019147;28;20181;-70
2022/09/22 10:27:06;;;;;;;9.07;4.07;;;;;;;;;;5014449;28;20195;-69
2022/09/22 10:29:31;;;;;;;8.15;3.53;;;;;;;;;;5014940;28;20839;-69
2022/09/22 10:32:02;;;;;;;6.88;3.38;;;;;;;;;;5002382;28;20172;-74
2022/09/22 10:34:30;;;;;;;7.28;2.67;;;;;;;;;;5025380;28;20225;-69
2022/09/22 10:36:56;;;;;;;6.05;2.95;;;;;;;;;;5026266;28;20176;-81
2022/09/22 10:39:30;;;;;;;7.85;2.50;;;;;;;;;;5025772;28;20263;-69
2022/09/22 10:41:56;;;;;;;5.82;2.65;;;;;;;;;;5026349;28;20693;-68
2022/09/22 10:44:24;;;;;;;5.43;2.60;;;;;;;;;;5026062;28;20232;-65
2022/09/22 10:47:13;;;;;;;6.72;2.90;;;;;;;;;;5031949;28;20213;-64
2022/09/22 10:50:01;;;;;;;7.13;2.67;;;;;;;;;;5030816;28;20222;-68
2022/09/22 10:52:45;;;;;;;5.65;2.67;;;;;;;;;;5028332;28;20226;-66
2022/09/22 10:55:27;;;;;;;9.15;2.90;;;;;;;;;;5048886;28;20221;-68
2022/09/22 10:57:52;;;;;;;6.38;3.10;;;;;;;;;;5045083;28;20203;-75
2022/09/22 11:00:18;;;;;;;4.55;2.90;;;;;;;;;;5032887;28;20175;-61
2022/09/22 11:03:06;;;;;;;7.40;2.85;;;;;;;;;;5049264;28;20218;-61
2022/09/22 11:50:33;;;;;;;5.05;1.90;;;;;;;;;;5243558;23;20294;-68
2022/09/22 11:53:20;;;;;;;4.18;1.35;;;;;;;;;;4993861;28;20623;-68
2022/09/22 11:55:49;;;;;;;5.38;1.27;;;;;;;;;;4977773;28;20204;-65
2022/09/22 11:58:16;;;;;;;4.05;1.20;;;;;;;;;;4975109;28;20544;-64
2022/09/22 12:00:47;;;;;;;3.53;1.30;;;;;;;;;;4970369;28;20181;-63
2022/09/22 12:03:15;;;;;;;2.95;1.40;;;;;;;;;;4963317;28;20297;-69
2022/09/22 12:05:42;;;;;;;4.30;1.55;;;;;;;;;;4969318;28;20652;-69
2022/09/22 12:08:12;;;;;;;4.22;1.30;;;;;;;;;;4968287;28;20209;-69
2022/09/22 12:10:39;;;;;;;5.30;1.77;;;;;;;;;;4969648;28;20209;-68
2022/09/22 12:13:08;;;;;;;3.17;1.50;;;;;;;;;;4968525;28;20180;-72
2022/09/22 12:15:40;;;;;;;5.35;1.83;;;;;;;;;;4965829;28;20170;-67
2022/09/22 12:18:08;;;;;;;6.50;1.60;;;;;;;;;;4965042;28;20181;-73
2022/09/22 12:20:52;;;;;;;5.30;1.75;;;;;;;;;;4961909;28;20170;-74
2022/09/22 12:23:22;;;;;;;3.50;1.50;;;;;;;;;;4960578;28;20182;-70
2022/09/22 12:26:02;;;;;;;3.15;1.42;;;;;;;;;;4962454;28;20185;-70
2022/09/22 12:28:28;;;;;;;3.30;1.27;;;;;;;;;;4966470;28;20206;-71
2022/09/22 12:31:00;;;;;;;2.97;1.58;;;;;;;;;;4965778;28;20539;-66
2022/09/22 12:33:26;;;;;;;2.88;1.58;;;;;;;;;;4967065;28;20182;-69
2022/09/22 12:35:53;;;;;;;4.10;1.58;;;;;;;;;;4968353;28;20699;-71
2022/09/22 12:38:19;;;;;;;4.00;1.42;;;;;;;;;;4968254;28;20272;-68
2022/09/22 12:40:45;;;;;;;3.50;1.30;;;;;;;;;;4965552;28;20174;-68
2022/09/22 12:43:12;;;;;;;3.38;1.17;;;;;;;;;;4957876;28;20602;-69
2022/09/22 12:45:39;;;;;;;6.07;1.70;;;;;;;;;;4957122;28;20566;-69
2022/09/22 12:48:07;;;;;;;4.78;1.42;;;;;;;;;;4961060;28;20641;-69
2022/09/22 12:50:35;;;;;;;3.08;1.30;;;;;;;;;;4968236;28;20186;-71
2022/09/22 12:53:02;;;;;;;3.90;1.60;;;;;;;;;;4974726;28;20178;-72
2022/09/22 12:55:27;;;;;;;5.18;1.70;;;;;;;;;;4989034;28;20208;-71
2022/09/22 12:57:59;;;;;;;4.35;1.63;;;;;;;;;;4993447;28;20264;-70
2022/09/22 13:00:34;;;;;;;6.35;1.80;;;;;;;;;;4991346;28;20196;-69
2022/09/22 13:03:00;;;;;;;4.28;1.42;;;;;;;;;;4992569;28;20169;-70
2022/09/22 13:05:25;;;;;;;5.00;1.63;;;;;;;;;;4992424;28;20628;-67
2022/09/22 13:07:52;;;;;;;3.20;1.40;;;;;;;;;;4983319;28;20197;-67
2022/09/22 13:10:21;;;;;;;3.72;1.40;;;;;;;;;;4983504;28;20264;-63
2022/09/22 13:13:02;;;;;;;3.85;1.40;;;;;;;;;;4989965;28;20498;-64
2022/09/22 13:15:30;;;;;;;6.72;2.00;;;;;;;;;;4991400;28;20700;-65
2022/09/22 13:17:56;;;;;;;3.83;1.50;;;;;;;;;;4989715;28;20166;-66
2022/09/22 13:20:22;;;;;;;4.00;1.50;;;;;;;;;;4989566;28;20410;-72
2022/09/22 13:22:49;;;;;;;4.78;1.60;;;;;;;;;;4989685;28;20193;-67
2022/09/22 13:25:43;;;;;;;3.67;1.50;;;;;;;;;;4991505;28;20158;-67
2022/09/22 13:28:13;;;;;;;4.07;1.40;;;;;;;;;;4987252;28;20243;-67
2022/09/22 13:30:39;;;;;;;3.83;1.40;;;;;;;;;;4989404;28;20192;-65
2022/09/22 13:33:04;;;;;;;5.97;1.40;;;;;;;;;;4990983;28;20173;-65
2022/09/22 13:35:32;;;;;;;3.75;1.45;;;;;;;;;;4989173;28;20650;-66
2022/09/22 13:37:57;;;;;;;5.28;1.50;;;;;;;;;;4989053;28;20412;-67
2022/09/22 13:40:24;;;;;;;4.40;1.60;;;;;;;;;;4991746;28;20470;-66
2022/09/22 13:42:49;;;;;;;3.05;1.40;;;;;;;;;;4989234;28;20604;-65
2022/09/22 13:45:17;;;;;;;3.85;1.40;;;;;;;;;;4984060;28;20755;-67
2022/09/22 13:47:42;;;;;;;5.55;1.40;;;;;;;;;;4971534;28;20185;-64
2022/09/22 13:50:10;;;;;;;2.65;1.45;;;;;;;;;;4934261;28;20276;-65
2022/09/22 13:52:37;;;;;;;3.38;1.70;;;;;;;;;;4957994;28;20229;-69
2022/09/22 13:55:08;;;;;;;3.40;1.40;;;;;;;;;;4950808;28;20214;-66
2022/09/22 13:57:36;;;;;;;5.82;1.73;;;;;;;;;;4937959;28;20186;-68
2022/09/22 14:00:02;;;;;;;3.50;1.20;;;;;;;;;;4939618;28;20416;-67
2022/09/22 14:02:27;;;;;;;4.75;1.40;;;;;;;;;;4954240;28;20199;-68
2022/09/22 14:04:55;;;;;;;4.75;1.50;;;;;;;;;;4943866;28;20485;-68
2022/09/22 14:07:21;;;;;;;5.88;2.15;;;;;;;;;;4960020;28;20250;-67
2022/09/22 14:09:46;;;;;;;3.35;1.50;;;;;;;;;;4960672;28;20289;-69
2022/09/22 14:12:11;;;;;;;5.93;1.50;;;;;;;;;;4961049;28;20532;-67
2022/09/22 14:14:38;;;;;;;3.75;1.48;;;;;;;;;;4961596;28;20625;-68
2022/09/22 14:17:07;;;;;;;6.10;1.60;;;;;;;;;;4962746;28;20233;-68
2022/09/22 14:19:33;;;;;;;3.28;1.20;;;;;;;;;;4961234;28;20286;-68
2022/09/22 14:21:59;;;;;;;4.10;1.40;;;;;;;;;;4937769;28;20245;-68
2022/09/22 14:24:24;;;;;;;2.45;1.40;;;;;;;;;;4954152;28;20213;-67
2022/09/22 14:26:50;;;;;;;4.00;1.30;;;;;;;;;;4959050;28;20210;-67
2022/09/22 14:29:22;;;;;;;3.40;1.38;;;;;;;;;;4961047;28;20237;-67
2022/09/22 14:31:48;;;;;;;6.22;1.67;;;;;;;;;;4961463;28;20605;-67
2022/09/22 14:34:16;;;;;;;4.13;1.55;;;;;;;;;;4962498;28;20213;-67
2022/09/22 14:36:42;;;;;;;4.00;1.60;;;;;;;;;;4961563;28;20214;-67
2022/09/22 14:39:11;;;;;;;4.43;1.60;;;;;;;;;;4960739;28;20272;-66
2022/09/22 14:41:36;;;;;;;4.63;1.60;;;;;;;;;;4958328;28;20226;-67
2022/09/22 14:44:20;;;;;;;3.78;1.42;;;;;;;;;;4954774;28;20206;-67
2022/09/22 14:46:45;;;;;;;2.85;1.25;;;;;;;;;;4956602;28;20216;-67
2022/09/22 14:49:29;;;;;;;4.75;1.50;;;;;;;;;;4957355;28;20367;-67
2022/09/22 14:51:55;;;;;;;4.97;1.63;;;;;;;;;;4961339;28;20595;-67
2022/09/22 14:54:20;;;;;;;4.13;1.60;;;;;;;;;;4960868;28;20222;-67
2022/09/22 14:56:46;;;;;;;3.53;1.40;;;;;;;;;;4963197;28;20312;-67
2022/09/22 15:04:49;;;;;;;5.63;1.52;;;;;;;;;;4957840;28;20252;-67
2022/09/22 15:07:19;;;;;;;4.10;1.50;;;;;;;;;;4952969;28;20217;-66
2022/09/22 15:09:44;;;;;;;5.85;1.40;;;;;;;;;;4954200;28;20229;-67
2022/09/22 15:12:28;;;;;;;6.03;1.90;;;;;;;;;;4957021;28;20206;-67
2022/09/22 15:14:57;;;;;;;3.85;1.80;;;;;;;;;;4960389;28;20256;-67
2022/09/22 15:20:18;;;;;;;4.38;1.55;;;;;;;;;;4961214;28;20217;-67
2022/09/22 15:22:45;;;;;;;2.83;1.50;;;;;;;;;;4959699;28;20222;-67
2022/09/22 15:25:15;;;;;;;3.60;1.63;;;;;;;;;;4961410;28;20222;-66
2022/09/22 15:27:40;;;;;;;5.03;1.80;;;;;;;;;;4954303;28;20583;-67
2022/09/22 15:30:12;;;;;;;2.30;1.30;;;;;;;;;;4955411;28;20228;-66
2022/09/22 15:32:38;;;;;;;3.17;1.35;;;;;;;;;;4954400;28;20225;-67
2022/09/22 15:35:03;;;;;;;4.57;1.60;;;;;;;;;;4958196;28;20225;-67
2022/09/22 15:37:29;;;;;;;4.50;1.65;;;;;;;;;;4963182;28;20289;-68
2022/09/22 15:39:54;;;;;;;6.35;1.73;;;;;;;;;;4961971;28;20293;-68
2022/09/22 15:42:20;;;;;;;7.07;1.80;;;;;;;;;;4960837;28;20431;-67
2022/09/22 15:44:46;;;;;;;6.25;1.90;;;;;;;;;;4961860;28;20723;-68
2022/09/22 15:47:15;;;;;;;6.82;1.80;;;;;;;;;;4960290;28;20209;-66